Time;durP1;ratioP1;P1;durP2;ratioP2;P2;SDS_P1;SDS_P2;PMS_P1;PMS_P2;Temp;Humidity;BMP_temperature;BMP_pressure;BME280_temperature;BME280_humidity;BME280_pressure;Samples;Min_cycle;Max_cycle;Signal;HPM_P1;HPM_P2
2021/06/28 00:00:19;;;;;;;24.35;20.77;;;17.60;99.90;;;;;;4162165;28;20049;-81
2021/06/28 00:02:20;;;;;;;31.05;23.83;;;17.60;99.90;;;;;;4163995;28;20030;-81
2021/06/28 00:04:21;;;;;;;27.33;22.05;;;17.60;99.90;;;;;;4162643;28;20033;-82
2021/06/28 00:06:24;;;;;;;27.27;22.15;;;17.60;99.90;;;;;;4162396;28;20043;-81
2021/06/28 00:08:25;;;;;;;28.40;22.10;;;17.60;99.90;;;;;;4162969;28;20036;-81
2021/06/28 00:10:29;;;;;;;29.30;23.80;;;17.60;99.90;;;;;;4162581;28;20041;-82
2021/06/28 00:12:30;;;;;;;28.50;23.50;;;17.60;99.90;;;;;;4162224;28;20033;-82
2021/06/28 00:14:31;;;;;;;26.27;21.65;;;17.60;99.90;;;;;;4162270;28;20046;-82
2021/06/28 00:16:32;;;;;;;26.63;22.15;;;17.60;99.90;;;;;;4162323;28;20354;-82
2021/06/28 00:18:34;;;;;;;28.13;23.58;;;17.60;99.90;;;;;;4161616;28;20163;-82
2021/06/28 00:20:35;;;;;;;29.48;23.90;;;17.60;99.90;;;;;;4160581;28;20040;-81
2021/06/28 00:22:36;;;;;;;27.85;22.60;;;17.60;99.90;;;;;;4149882;28;20045;-81
2021/06/28 00:24:37;;;;;;;28.20;22.98;;;17.60;99.90;;;;;;4160992;28;20479;-81
2021/06/28 00:26:39;;;;;;;26.58;23.45;;;17.70;99.90;;;;;;4160461;28;20042;-81
2021/06/28 00:28:40;;;;;;;27.45;22.45;;;17.60;99.90;;;;;;4160189;28;20025;-81
2021/06/28 00:30:48;;;;;;;29.73;23.17;;;17.60;99.90;;;;;;4169019;28;20469;-85
2021/06/28 00:32:58;;;;;;;31.42;24.02;;;17.60;99.90;;;;;;4154567;28;20104;-85
2021/06/28 00:34:58;;;;;;;27.05;22.27;;;17.70;99.90;;;;;;4152332;28;20468;-85
2021/06/28 00:36:59;;;;;;;31.55;23.75;;;17.70;99.90;;;;;;4162234;28;20045;-85
2021/06/28 00:39:03;;;;;;;30.88;25.23;;;17.70;99.90;;;;;;4162555;28;20037;-84
2021/06/28 00:41:05;;;;;;;29.65;25.27;;;17.70;99.90;;;;;;4162297;28;20061;-84
2021/06/28 00:43:07;;;;;;;28.13;24.05;;;17.60;99.90;;;;;;4171233;28;20107;-85
2021/06/28 00:45:20;;;;;;;31.30;25.27;;;17.60;99.90;;;;;;4162800;28;20516;-83
2021/06/28 00:47:27;;;;;;;29.88;25.13;;;17.60;99.90;;;;;;4166516;28;20037;-84
2021/06/28 00:49:28;;;;;;;31.48;25.52;;;17.60;99.90;;;;;;4166720;28;20034;-84
2021/06/28 00:51:28;;;;;;;28.63;24.73;;;17.60;99.90;;;;;;4162753;28;20087;-85
2021/06/28 00:53:30;;;;;;;29.08;25.30;;;17.50;99.90;;;;;;4162790;28;20044;-85
2021/06/28 00:55:31;;;;;;;34.03;26.00;;;17.50;99.90;;;;;;4163054;28;20428;-85
2021/06/28 00:57:34;;;;;;;33.35;26.13;;;17.40;99.90;;;;;;4164257;28;20034;-85
2021/06/28 00:59:37;;;;;;;32.72;25.80;;;17.30;99.90;;;;;;4162191;28;20755;-86
2021/06/28 01:01:39;;;;;;;32.78;25.77;;;17.30;99.90;;;;;;4162368;28;20124;-84
2021/06/28 01:03:49;;;;;;;37.25;26.48;;;17.30;99.90;;;;;;4162559;28;20029;-85
2021/06/28 01:05:51;;;;;;;32.42;26.73;;;17.20;99.90;;;;;;4163103;28;20033;-84
2021/06/28 01:07:52;;;;;;;35.83;29.20;;;17.20;99.90;;;;;;4162588;28;20479;-85
2021/06/28 01:09:54;;;;;;;35.28;26.17;;;17.20;99.90;;;;;;4162612;28;20026;-84
2021/06/28 01:11:56;;;;;;;38.20;28.77;;;17.10;99.90;;;;;;4163018;28;20520;-86
2021/06/28 01:14:05;;;;;;;42.22;30.60;;;17.10;99.90;;;;;;4163437;28;20102;-86
2021/06/28 01:16:19;;;;;;;37.65;28.45;;;17.00;99.90;;;;;;4163932;28;20103;-85
2021/06/28 01:18:30;;;;;;;40.30;29.17;;;16.90;99.90;;;;;;4162716;28;20501;-85
2021/06/28 01:20:31;;;;;;;39.60;28.77;;;16.90;99.90;;;;;;4163928;28;20366;-85
2021/06/28 01:22:35;;;;;;;38.80;27.85;;;16.80;99.90;;;;;;4162376;28;20032;-85
2021/06/28 01:24:48;;;;;;;34.65;26.55;;;16.80;99.90;;;;;;4162441;28;20106;-85
2021/06/28 01:27:03;;;;;;;41.80;28.75;;;16.70;99.90;;;;;;4164104;28;20464;-85
2021/06/28 01:29:05;;;;;;;34.03;27.83;;;16.70;99.90;;;;;;4163431;28;20029;-85
2021/06/28 01:31:24;;;;;;;41.88;28.75;;;16.70;99.90;;;;;;4150390;28;20036;-85
2021/06/28 01:33:26;;;;;;;36.00;28.02;;;16.60;99.90;;;;;;4162381;28;20155;-85
2021/06/28 01:35:31;;;;;;;40.58;29.67;;;16.60;99.90;;;;;;4164191;28;20028;-85
2021/06/28 01:37:41;;;;;;;41.45;30.40;;;16.70;99.90;;;;;;4161445;28;20034;-85
2021/06/28 01:39:42;;;;;;;43.17;30.20;;;16.70;99.90;;;;;;4162601;28;20060;-85
2021/06/28 01:41:49;;;;;;;40.70;30.48;;;16.70;99.90;;;;;;4167080;28;20493;-86
2021/06/28 01:44:09;;;;;;;41.00;29.77;;;16.60;99.90;;;;;;4165315;28;20077;-85
2021/06/28 01:46:10;;;;;;;44.35;31.35;;;16.50;99.90;;;;;;4165013;28;20044;-85
2021/06/28 01:48:12;;;;;;;43.95;30.98;;;16.50;99.90;;;;;;4167265;28;20731;-85
2021/06/28 01:50:21;;;;;;;47.72;30.23;;;16.40;99.90;;;;;;4165346;28;20021;-85
2021/06/28 01:52:30;;;;;;;46.33;31.80;;;16.40;99.90;;;;;;4166698;28;20029;-85
2021/06/28 01:54:31;;;;;;;48.22;32.65;;;16.40;99.90;;;;;;4164759;28;20061;-85
2021/06/28 01:56:41;;;;;;;44.58;31.88;;;16.40;99.90;;;;;;4166374;28;20424;-86
2021/06/28 01:58:43;;;;;;;45.35;31.15;;;16.40;99.90;;;;;;4163691;28;20113;-85
2021/06/28 02:00:53;;;;;;;48.53;32.17;;;16.40;99.90;;;;;;4165531;28;20112;-85
2021/06/28 02:03:11;;;;;;;50.13;34.00;;;16.30;99.90;;;;;;4165436;28;20124;-85
2021/06/28 02:05:13;;;;;;;47.08;30.45;;;16.30;99.90;;;;;;4178406;28;20104;-84
2021/06/28 02:07:23;;;;;;;42.38;29.55;;;16.30;99.90;;;;;;4165050;28;20041;-84
2021/06/28 02:09:32;;;;;;;48.30;30.13;;;16.30;99.90;;;;;;4165353;28;20029;-86
2021/06/28 02:11:46;;;;;;;49.33;31.73;;;16.30;99.90;;;;;;4166373;28;20045;-85
2021/06/28 02:13:54;;;;;;;;;;;16.20;99.90;;;;;;4166500;28;20590;-85
2021/06/28 02:15:55;;;;;;;41.65;28.70;;;16.20;99.90;;;;;;4159176;28;19910;-86
2021/06/28 02:17:57;;;;;;;44.60;30.92;;;16.10;99.90;;;;;;4163363;28;20519;-86
2021/06/28 02:19:58;;;;;;;49.05;30.13;;;16.10;99.90;;;;;;4165160;28;20053;-84
2021/06/28 02:22:00;;;;;;;51.55;32.25;;;16.00;99.90;;;;;;4181491;28;20436;-86
2021/06/28 02:24:02;;;;;;;55.75;33.60;;;16.00;99.90;;;;;;4166115;28;20164;-86
2021/06/28 02:26:07;;;;;;;51.88;33.58;;;16.00;99.90;;;;;;4165429;28;20031;-84
2021/06/28 02:28:15;;;;;;;51.83;33.95;;;16.00;99.90;;;;;;4164267;28;20104;-86
2021/06/28 02:30:18;;;;;;;55.75;35.90;;;16.00;99.90;;;;;;4165312;28;20021;-85
2021/06/28 02:32:18;;;;;;;55.63;35.35;;;16.00;99.90;;;;;;4163825;28;20033;-85
2021/06/28 02:34:20;;;;;;;57.28;35.03;;;16.00;99.90;;;;;;4164268;28;20115;-85
2021/06/28 02:36:28;;;;;;;56.75;34.53;;;16.00;99.90;;;;;;4166156;28;20034;-85
2021/06/28 02:38:29;;;;;;;52.17;33.45;;;16.00;99.90;;;;;;4165622;28;20357;-85
2021/06/28 02:40:30;;;;;;;53.38;35.38;;;16.00;99.90;;;;;;4166375;28;20036;-86
2021/06/28 02:42:30;;;;;;;49.05;33.03;;;15.90;99.90;;;;;;4166303;28;20123;-85
2021/06/28 02:44:32;;;;;;;61.55;36.85;;;15.80;99.90;;;;;;4164394;28;20033;-84
2021/06/28 02:46:38;;;;;;;58.63;35.80;;;15.80;99.90;;;;;;4163994;28;20034;-85
2021/06/28 02:48:41;;;;;;;54.30;33.60;;;15.90;99.90;;;;;;4165024;28;20051;-85
2021/06/28 02:50:43;;;;;;;57.85;35.83;;;15.90;99.90;;;;;;4165013;28;20692;-84
2021/06/28 02:52:44;;;;;;;52.95;33.38;;;15.90;99.90;;;;;;4163591;28;20080;-85
2021/06/28 02:54:45;;;;;;;56.08;34.85;;;15.90;99.90;;;;;;4165536;28;20045;-85
2021/06/28 02:56:48;;;;;;;56.28;35.85;;;15.90;99.90;;;;;;4164463;28;20051;-85
2021/06/28 02:58:54;;;;;;;64.75;37.75;;;15.80;99.90;;;;;;4164281;28;20038;-85
2021/06/28 03:00:55;;;;;;;59.22;36.60;;;15.80;99.90;;;;;;4163747;28;20657;-85
2021/06/28 03:02:59;;;;;;;58.58;37.00;;;15.80;99.90;;;;;;4165555;28;20036;-85
2021/06/28 03:04:59;;;;;;;;;;;15.80;99.90;;;;;;4164616;28;20034;-85
2021/06/28 03:07:00;;;;;;;53.97;32.67;;;15.80;99.90;;;;;;4152210;28;19909;-85
2021/06/28 03:09:01;;;;;;;64.18;37.45;;;15.70;99.90;;;;;;4163389;28;20120;-86
2021/06/28 03:11:04;;;;;;;59.70;35.38;;;15.70;99.90;;;;;;4180517;28;20406;-85
2021/06/28 03:13:14;;;;;;;63.70;37.47;;;15.70;99.90;;;;;;4163946;28;20040;-86
2021/06/28 03:15:22;;;;;;;64.45;37.95;;;15.70;99.90;;;;;;4163942;28;20033;-85
2021/06/28 03:17:41;;;;;;;58.58;36.15;;;15.60;99.90;;;;;;4164161;28;20112;-86
2021/06/28 03:19:41;;;;;;;56.35;36.45;;;15.60;99.90;;;;;;4164273;28;20460;-85
2021/06/28 03:21:50;;;;;;;56.08;35.30;;;15.50;99.90;;;;;;4163520;28;20049;-86
2021/06/28 03:23:50;;;;;;;59.22;34.47;;;15.50;99.90;;;;;;4162667;28;20034;-85
2021/06/28 03:26:06;;;;;;;69.53;40.10;;;15.60;99.90;;;;;;4164547;28;20056;-85
2021/06/28 03:28:14;;;;;;;63.83;36.97;;;15.60;99.90;;;;;;4163089;28;20030;-85
2021/06/28 03:30:16;;;;;;;70.70;39.30;;;15.60;99.90;;;;;;4163274;28;20410;-86
2021/06/28 03:32:17;;;;;;;79.78;42.22;;;15.50;99.90;;;;;;4163674;28;20314;-85
2021/06/28 03:34:25;;;;;;;59.53;39.13;;;15.50;99.90;;;;;;4163211;28;20037;-85
2021/06/28 03:36:26;;;;;;;65.32;38.33;;;15.50;99.90;;;;;;4163571;28;20563;-86
2021/06/28 03:38:27;;;;;;;60.42;38.88;;;15.50;99.90;;;;;;4153505;28;20036;-85
2021/06/28 03:40:42;;;;;;;57.22;34.05;;;15.50;99.90;;;;;;4163090;28;20484;-85
2021/06/28 03:42:43;;;;;;;63.45;36.55;;;15.50;99.90;;;;;;4164935;28;20109;-85
2021/06/28 03:44:50;;;;;;;54.63;33.78;;;15.50;99.90;;;;;;4164251;28;20469;-86
2021/06/28 03:46:52;;;;;;;61.83;36.13;;;15.50;99.90;;;;;;4163618;28;20029;-86
2021/06/28 03:48:59;;;;;;;52.53;32.67;;;15.50;99.90;;;;;;4163159;28;20057;-85
2021/06/28 03:51:00;;;;;;;68.63;37.63;;;15.50;99.90;;;;;;4163104;28;20535;-84
2021/06/28 03:53:01;;;;;;;90.72;41.08;;;15.40;99.90;;;;;;4164014;28;20068;-84
2021/06/28 03:55:06;;;;;;;80.15;44.58;;;15.40;99.90;;;;;;4163046;28;20037;-85
2021/06/28 03:57:25;;;;;;;69.80;41.97;;;15.40;99.90;;;;;;4163249;28;20025;-84
2021/06/28 03:59:26;;;;;;;75.97;43.22;;;15.50;99.90;;;;;;4159699;28;20119;-83
2021/06/28 04:01:26;;;;;;;77.50;42.08;;;15.50;99.90;;;;;;4163599;28;20448;-85
2021/06/28 04:03:29;;;;;;;77.50;44.38;;;15.50;99.90;;;;;;4163262;28;20037;-86
2021/06/28 04:05:29;;;;;;;81.80;46.90;;;15.50;99.90;;;;;;4164618;28;20033;-86
2021/06/28 04:07:36;;;;;;;65.55;40.13;;;15.50;99.90;;;;;;4164717;28;20064;-86
2021/06/28 04:09:37;;;;;;;69.47;41.13;;;15.50;99.90;;;;;;4163064;28;20038;-85
2021/06/28 04:11:44;;;;;;;78.45;43.67;;;15.50;99.90;;;;;;4163305;28;20040;-85
2021/06/28 04:13:52;;;;;;;85.57;47.42;;;15.50;99.90;;;;;;4166225;28;20029;-86
2021/06/28 04:15:53;;;;;;;80.50;44.13;;;15.50;99.90;;;;;;4164458;28;20511;-86
2021/06/28 04:17:55;;;;;;;75.90;44.03;;;15.50;99.90;;;;;;4165843;28;20044;-85
2021/06/28 04:19:55;;;;;;;98.32;46.50;;;15.60;99.90;;;;;;4164691;28;20034;-86
2021/06/28 04:21:56;;;;;;;79.47;43.90;;;15.60;99.90;;;;;;4164327;28;20026;-85
2021/06/28 04:24:05;;;;;;;83.25;49.40;;;15.60;99.90;;;;;;4166147;28;20080;-85
2021/06/28 04:26:05;;;;;;;78.30;47.08;;;15.70;99.90;;;;;;4150435;28;20108;-85
2021/06/28 04:28:14;;;;;;;88.13;50.95;;;15.70;99.90;;;;;;4164049;28;20026;-85
2021/06/28 04:30:24;;;;;;;92.18;52.22;;;15.80;99.90;;;;;;4162736;28;20037;-86
2021/06/28 04:32:25;;;;;;;90.85;48.95;;;15.80;99.90;;;;;;4162465;28;20025;-86
2021/06/28 04:34:30;;;;;;;84.95;49.05;;;15.90;99.90;;;;;;4162555;28;20068;-85
2021/06/28 04:36:37;;;;;;;94.28;52.78;;;15.90;99.90;;;;;;4161411;28;20037;-86
2021/06/28 04:38:38;;;;;;;90.18;51.92;;;16.00;99.90;;;;;;4155355;28;20034;-85
2021/06/28 04:40:38;;;;;;;86.60;51.65;;;16.10;99.90;;;;;;4162547;28;20525;-86
2021/06/28 04:42:43;;;;;;;89.70;51.03;;;16.20;99.90;;;;;;4160658;28;20033;-85
2021/06/28 04:44:44;;;;;;;91.45;53.55;;;16.30;99.90;;;;;;4162738;28;20038;-85
2021/06/28 04:46:45;;;;;;;91.22;51.95;;;16.30;99.90;;;;;;4162573;28;20107;-85
2021/06/28 04:48:48;;;;;;;87.22;54.00;;;16.40;99.90;;;;;;4164626;28;20405;-85
2021/06/28 04:50:49;;;;;;;88.75;52.97;;;16.40;99.90;;;;;;4152371;28;20030;-85
2021/06/28 04:52:52;;;;;;;90.35;55.88;;;16.50;99.90;;;;;;4160301;28;20116;-86
2021/06/28 04:54:54;;;;;;;97.30;55.13;;;16.60;99.90;;;;;;4162466;28;20560;-85
2021/06/28 04:57:13;;;;;;;94.05;55.72;;;16.60;99.90;;;;;;4162756;28;20109;-86
2021/06/28 04:59:20;;;;;;;92.30;54.75;;;16.70;99.90;;;;;;4156188;28;20041;-86
2021/06/28 05:01:21;;;;;;;102.60;56.55;;;16.80;99.90;;;;;;4162961;28;20037;-86
2021/06/28 05:03:22;;;;;;;82.57;53.17;;;16.80;99.90;;;;;;4162333;28;20132;-85
2021/06/28 05:05:29;;;;;;;92.13;55.35;;;16.80;99.90;;;;;;4163115;28;20022;-86
2021/06/28 05:07:42;;;;;;;92.80;56.58;;;16.90;99.90;;;;;;4163253;28;20056;-85
2021/06/28 05:09:45;;;;;;;91.15;55.83;;;16.90;99.90;;;;;;4162820;28;20510;-85
2021/06/28 05:11:47;;;;;;;97.72;55.70;;;17.00;99.90;;;;;;4162634;28;20623;-85
2021/06/28 05:14:06;;;;;;;100.07;57.38;;;17.00;99.90;;;;;;4163136;28;20120;-84
2021/06/28 05:16:11;;;;;;;96.05;56.33;;;17.10;99.90;;;;;;4173320;28;20032;-88
2021/06/28 05:18:11;;;;;;;94.30;57.47;;;17.20;99.90;;;;;;4166303;28;20022;-87
2021/06/28 05:20:13;;;;;;;97.07;59.15;;;17.30;99.90;;;;;;4180280;28;20048;-88
2021/06/28 05:22:19;;;;;;;98.35;59.20;;;17.30;99.90;;;;;;4180269;28;20029;-88
2021/06/28 05:24:21;;;;;;;96.30;56.67;;;17.40;99.90;;;;;;4166249;28;20103;-88
2021/06/28 05:26:22;;;;;;;85.53;56.67;;;17.50;99.90;;;;;;4166651;28;20492;-86
2021/06/28 05:28:23;;;;;;;95.22;60.13;;;17.60;99.90;;;;;;4166522;28;20032;-88
2021/06/28 05:30:24;;;;;;;89.63;56.55;;;17.60;99.90;;;;;;4166804;28;20542;-89
2021/06/28 05:32:36;;;;;;;94.85;59.08;;;17.60;99.90;;;;;;4166753;28;20036;-91
2021/06/28 05:34:37;;;;;;;77.65;52.22;;;17.80;99.90;;;;;;4162753;28;20132;-91
2021/06/28 05:36:37;;;;;;;92.65;57.67;;;17.80;99.90;;;;;;4167294;28;20045;-90
2021/06/28 05:38:38;;;;;;;84.53;57.00;;;17.90;99.90;;;;;;4162352;28;20038;-90
2021/06/28 05:40:39;;;;;;;104.65;66.13;;;18.00;99.90;;;;;;4166576;28;20138;-89
2021/06/28 05:42:40;;;;;;;79.32;52.13;;;18.10;99.90;;;;;;4166120;28;20101;-89
2021/06/28 05:44:41;;;;;;;73.97;49.92;;;18.20;99.90;;;;;;4183218;28;20045;-90
2021/06/28 05:46:49;;;;;;;83.43;54.30;;;18.30;99.90;;;;;;4163897;28;20032;-91
2021/06/28 05:48:49;;;;;;;77.05;48.90;;;18.30;99.90;;;;;;4174547;28;20376;-89
2021/06/28 05:50:51;;;;;;;65.20;44.53;;;18.40;99.90;;;;;;4165961;28;20041;-90
2021/06/28 05:52:53;;;;;;;65.03;44.22;;;18.40;99.90;;;;;;4166656;28;20105;-90
2021/06/28 05:54:54;;;;;;;55.03;41.35;;;18.40;99.90;;;;;;4167302;28;20500;-91
2021/06/28 05:56:55;;;;;;;50.80;39.63;;;18.50;99.90;;;;;;4167189;28;20093;-87
2021/06/28 05:58:57;;;;;;;58.85;43.97;;;18.40;99.90;;;;;;4167342;28;20173;-88
2021/06/28 06:00:59;;;;;;;61.90;43.83;;;18.50;99.90;;;;;;4165846;28;20469;-88
2021/06/28 06:03:04;;;;;;;62.45;42.78;;;18.50;99.90;;;;;;4165552;28;20100;-89
2021/06/28 06:05:13;;;;;;;65.72;45.08;;;18.60;99.90;;;;;;4166549;28;20029;-90
2021/06/28 06:07:14;;;;;;;53.33;39.70;;;18.70;99.90;;;;;;4167511;28;20097;-91
2021/06/28 06:09:15;;;;;;;54.88;40.38;;;18.80;99.90;;;;;;4166370;28;20063;-92
2021/06/28 06:11:17;;;;;;;49.50;38.40;;;18.90;99.90;;;;;;4168584;28;20084;-92
2021/06/28 06:13:18;;;;;;;50.72;39.05;;;18.90;99.90;;;;;;4168917;28;20342;-92
2021/06/28 06:15:20;;;;;;;52.13;36.63;;;18.90;99.90;;;;;;4167078;28;20080;-90
2021/06/28 06:17:20;;;;;;;48.15;34.65;;;19.00;99.90;;;;;;4166303;28;20123;-90
2021/06/28 06:19:21;;;;;;;45.30;33.95;;;19.00;99.90;;;;;;4165268;28;20132;-87
2021/06/28 06:21:22;;;;;;;42.25;32.67;;;19.10;99.90;;;;;;4160431;28;20045;-88
2021/06/28 06:23:24;;;;;;;38.90;32.20;;;19.10;99.90;;;;;;4164859;28;20033;-89
2021/06/28 06:25:25;;;;;;;41.00;30.98;;;19.20;99.90;;;;;;4165083;28;20037;-89
2021/06/28 06:27:25;;;;;;;37.80;33.55;;;19.20;99.90;;;;;;4164939;28;20054;-84
2021/06/28 06:29:26;;;;;;;37.10;33.17;;;19.30;99.90;;;;;;4164801;28;20593;-87
2021/06/28 06:31:26;;;;;;;34.88;30.52;;;19.30;99.90;;;;;;4159721;28;20088;-88
2021/06/28 06:33:27;;;;;;;36.78;30.75;;;19.30;99.90;;;;;;4166050;28;20117;-85
2021/06/28 06:35:34;;;;;;;38.55;32.85;;;19.40;99.90;;;;;;4164922;28;20046;-89
2021/06/28 06:37:35;;;;;;;33.58;29.85;;;19.40;99.90;;;;;;4165534;28;20060;-90
2021/06/28 06:39:35;;;;;;;35.25;31.10;;;19.50;99.90;;;;;;4166544;28;20033;-89
2021/06/28 06:41:36;;;;;;;33.95;29.52;;;19.50;99.90;;;;;;4164755;28;20033;-88
2021/06/28 06:43:37;;;;;;;36.08;30.02;;;19.50;99.90;;;;;;4163990;28;20042;-90
2021/06/28 06:45:43;;;;;;;39.28;33.40;;;19.60;99.90;;;;;;4165897;28;20124;-88
2021/06/28 06:47:46;;;;;;;32.65;29.45;;;19.60;99.90;;;;;;4165297;28;20033;-88
2021/06/28 06:49:54;;;;;;;33.15;29.77;;;19.70;99.90;;;;;;4164946;28;20041;-88
2021/06/28 06:52:02;;;;;;;29.98;26.95;;;19.80;99.90;;;;;;4161042;28;20045;-86
2021/06/28 06:54:03;;;;;;;31.77;28.58;;;19.80;99.90;;;;;;4165213;28;20025;-87
2021/06/28 06:56:07;;;;;;;28.55;25.60;;;19.90;99.90;;;;;;4165637;28;20076;-90
2021/06/28 06:58:16;;;;;;;29.02;25.48;;;20.00;99.90;;;;;;4164311;28;20064;-87
2021/06/28 07:00:24;;;;;;;30.45;27.35;;;20.10;99.90;;;;;;4165493;28;20025;-89
2021/06/28 07:02:24;;;;;;;28.73;25.92;;;20.30;99.90;;;;;;4165656;28;20099;-85
2021/06/28 07:04:25;;;;;;;26.98;24.30;;;20.40;99.90;;;;;;4163840;28;20037;-84
2021/06/28 07:06:27;;;;;;;30.08;27.08;;;20.60;99.90;;;;;;4163087;28;20049;-83
2021/06/28 07:08:37;;;;;;;25.67;22.92;;;20.70;99.90;;;;;;4164008;28;20049;-84
2021/06/28 07:10:38;;;;;;;25.80;23.13;;;20.90;99.90;;;;;;4156028;28;20026;-91
2021/06/28 07:12:40;;;;;;;27.75;24.88;;;21.00;99.90;;;;;;4155573;28;20099;-85
2021/06/28 07:14:41;;;;;;;26.55;23.55;;;21.10;99.90;;;;;;4165447;28;20044;-85
2021/06/28 07:16:46;;;;;;;26.23;23.48;;;21.20;99.90;;;;;;4164057;28;20141;-85
2021/06/28 07:18:47;;;;;;;25.35;22.85;;;21.30;99.90;;;;;;4165044;28;20589;-84
2021/06/28 07:20:50;;;;;;;23.98;21.50;;;21.40;99.90;;;;;;4164124;28;20045;-87
2021/06/28 07:22:53;;;;;;;25.08;22.73;;;21.50;99.90;;;;;;4165098;28;20037;-87
2021/06/28 07:24:54;;;;;;;24.08;21.73;;;21.60;99.90;;;;;;4164163;28;20044;-86
2021/06/28 07:26:54;;;;;;;24.63;22.05;;;21.70;99.90;;;;;;4180625;28;20112;-87
2021/06/28 07:28:56;;;;;;;25.65;22.33;;;21.90;99.90;;;;;;4164608;28;20120;-85
2021/06/28 07:31:00;;;;;;;24.23;21.80;;;21.90;99.90;;;;;;4163641;28;20456;-86
2021/06/28 07:33:15;;;;;;;23.38;21.17;;;22.10;99.90;;;;;;4164632;28;20021;-85
2021/06/28 07:35:18;;;;;;;21.77;19.88;;;22.20;99.90;;;;;;4166006;28;20037;-85
2021/06/28 07:37:29;;;;;;;21.50;19.30;;;22.20;99.90;;;;;;4165032;28;20105;-84
2021/06/28 07:39:33;;;;;;;25.70;23.15;;;22.30;99.90;;;;;;4164690;28;20033;-85
2021/06/28 07:41:35;;;;;;;22.88;20.77;;;22.40;99.90;;;;;;4164080;28;20037;-83
2021/06/28 07:43:37;;;;;;;21.52;19.35;;;22.40;99.90;;;;;;4164915;28;20094;-84
2021/06/28 07:45:37;;;;;;;23.83;21.50;;;22.50;99.90;;;;;;4163245;28;20033;-83
2021/06/28 07:47:40;;;;;;;23.58;21.27;;;22.70;99.90;;;;;;4163104;28;20280;-82
2021/06/28 07:49:41;;;;;;;24.10;21.80;;;22.80;99.90;;;;;;4161603;28;20034;-82
2021/06/28 07:51:42;;;;;;;21.90;19.60;;;22.80;99.90;;;;;;4161923;28;20109;-82
2021/06/28 07:53:43;;;;;;;22.88;20.67;;;22.80;99.90;;;;;;4162192;28;20117;-81
2021/06/28 07:55:45;;;;;;;22.45;20.25;;;22.80;99.90;;;;;;4163155;28;20120;-82
2021/06/28 07:57:48;;;;;;;25.70;21.05;;;22.70;99.90;;;;;;4163838;28;20040;-82
2021/06/28 07:59:48;;;;;;;;;;;22.80;99.90;;;;;;4162851;28;20040;-82
2021/06/28 08:01:51;;;;;;;22.00;19.90;;;22.80;99.90;;;;;;4163858;28;20375;-82
2021/06/28 08:03:57;;;;;;;20.63;18.67;;;22.90;99.90;;;;;;4162606;28;20030;-81
2021/06/28 08:05:59;;;;;;;21.52;19.33;;;23.10;99.90;;;;;;4155114;28;20029;-82
2021/06/28 08:07:59;;;;;;;21.27;19.05;;;23.10;99.90;;;;;;4163963;28;20021;-83
2021/06/28 08:10:07;;;;;;;22.00;19.85;;;23.10;99.90;;;;;;4164122;28;20026;-83
2021/06/28 08:12:09;;;;;;;20.95;19.05;;;23.20;99.90;;;;;;4163461;28;20446;-83
2021/06/28 08:14:12;;;;;;;21.52;19.42;;;23.40;99.90;;;;;;4162968;28;20033;-83
2021/06/28 08:16:14;;;;;;;21.70;19.73;;;23.60;99.90;;;;;;4156330;28;20036;-83
2021/06/28 08:18:15;;;;;;;20.08;17.95;;;23.80;99.90;;;;;;4164309;28;20079;-83
2021/06/28 08:20:18;;;;;;;19.80;17.75;;;23.90;99.90;;;;;;4163201;28;20429;-84
2021/06/28 08:22:18;;;;;;;19.98;18.10;;;24.00;99.90;;;;;;4162651;28;20018;-81
2021/06/28 08:24:21;;;;;;;24.52;21.33;;;24.10;99.90;;;;;;4162748;28;20422;-81
2021/06/28 08:26:21;;;;;;;21.67;19.67;;;24.20;99.90;;;;;;4164355;28;20029;-83
2021/06/28 08:28:24;;;;;;;23.63;21.10;;;24.30;99.90;;;;;;4159395;28;20381;-84
2021/06/28 08:30:24;;;;;;;23.58;21.40;;;24.40;99.90;;;;;;4162447;28;20480;-83
2021/06/28 08:32:25;;;;;;;23.38;21.08;;;24.60;99.90;;;;;;4162633;28;20120;-83
2021/06/28 08:34:26;;;;;;;21.45;19.48;;;24.50;99.90;;;;;;4163746;28;20119;-84
2021/06/28 08:36:27;;;;;;;21.75;19.55;;;24.60;99.90;;;;;;4162606;28;20038;-83
2021/06/28 08:38:32;;;;;;;20.47;18.57;;;24.80;99.90;;;;;;4163902;28;20124;-84
2021/06/28 08:40:33;;;;;;;24.33;22.13;;;25.10;99.90;;;;;;4163490;28;20065;-83
2021/06/28 08:42:34;;;;;;;22.85;20.67;;;25.00;99.90;;;;;;4162641;28;20110;-84
2021/06/28 08:44:35;;;;;;;22.00;19.85;;;24.90;99.90;;;;;;4162728;28;20041;-84
2021/06/28 08:46:38;;;;;;;19.42;17.63;;;25.10;99.90;;;;;;4162367;28;20057;-84
2021/06/28 08:48:44;;;;;;;21.83;19.52;;;25.20;99.90;;;;;;4163436;28;20125;-84
2021/06/28 08:50:45;;;;;;;21.63;19.52;;;25.50;99.90;;;;;;4161998;28;20040;-84
2021/06/28 08:52:52;;;;;;;18.95;17.05;;;25.70;99.90;;;;;;4164217;28;20034;-84
2021/06/28 08:54:52;;;;;;;19.05;17.25;;;25.90;99.90;;;;;;4169632;28;20120;-84
2021/06/28 08:56:54;;;;;;;18.58;16.83;;;26.00;99.90;;;;;;4162916;28;20465;-83
2021/06/28 08:58:54;;;;;;;20.90;18.90;;;26.30;99.90;;;;;;4178743;28;20037;-84
2021/06/28 09:00:55;;;;;;;19.65;17.67;;;26.50;99.90;;;;;;4164453;28;20374;-84
2021/06/28 09:02:59;;;;;;;19.83;18.13;;;26.80;99.90;;;;;;4167393;28;20057;-85
2021/06/28 09:05:04;;;;;;;22.08;19.98;;;27.10;99.90;;;;;;4178875;28;20086;-83
2021/06/28 09:07:21;;;;;;;19.00;17.27;;;26.80;99.90;;;;;;4156785;28;20039;-83
2021/06/28 09:09:48;;;;;;;19.65;17.73;;;27.00;99.90;;;;;;4157465;28;20042;-83
2021/06/28 09:11:58;;;;;;;17.70;15.90;;;26.90;99.90;;;;;;4167934;28;20811;-84
2021/06/28 09:14:02;;;;;;;17.75;16.23;;;27.10;99.90;;;;;;4161936;28;20034;-83
2021/06/28 09:16:41;;;;;;;20.45;18.63;;;27.30;99.90;;;;;;4173049;28;20029;-83
2021/06/28 09:19:06;;;;;;;20.77;18.80;;;27.10;99.90;;;;;;4129564;28;20120;-84
2021/06/28 09:21:13;;;;;;;19.73;17.75;;;26.70;99.90;;;;;;4150445;28;20025;-83
2021/06/28 09:23:23;;;;;;;19.02;17.25;;;26.60;99.90;;;;;;4164689;28;20568;-84
2021/06/28 09:25:37;;;;;;;17.63;16.02;;;26.80;99.90;;;;;;4163209;28;20097;-85
2021/06/28 09:27:45;;;;;;;19.45;17.85;;;26.80;99.90;;;;;;4156220;28;20049;-85
2021/06/28 09:29:52;;;;;;;17.73;15.93;;;27.00;99.90;;;;;;4162387;28;20539;-85
2021/06/28 09:31:53;;;;;;;18.30;16.45;;;27.20;99.90;;;;;;4161976;28;20060;-85
2021/06/28 09:34:24;;;;;;;17.10;15.52;;;27.50;99.90;;;;;;4163229;28;20465;-86
2021/06/28 09:36:24;;;;;;;11.93;10.82;;;27.80;99.90;;;;;;4161948;28;20410;-85
2021/06/28 09:38:43;;;;;;;12.98;11.63;;;28.00;99.90;;;;;;4163862;28;20025;-86
2021/06/28 09:40:47;;;;;;;13.00;11.73;;;28.10;99.90;;;;;;4164853;28;20032;-86
2021/06/28 09:42:58;;;;;;;14.18;12.43;;;28.00;99.90;;;;;;4162639;28;20029;-85
2021/06/28 09:45:15;;;;;;;12.23;11.00;;;28.00;99.90;;;;;;4164258;28;20032;-86
2021/06/28 09:47:26;;;;;;;14.00;12.70;;;28.30;99.90;;;;;;4162181;28;20440;-86
2021/06/28 09:49:28;;;;;;;11.50;10.40;;;28.70;99.90;;;;;;4162712;28;20078;-85
2021/06/28 09:51:37;;;;;;;13.35;10.00;;;28.70;99.90;;;;;;4163298;28;20052;-87
2021/06/28 09:53:40;;;;;;;12.85;11.60;;;28.80;99.90;;;;;;4164369;28;20037;-87
2021/06/28 09:55:42;;;;;;;13.68;12.35;;;28.90;99.90;;;;;;4163365;28;20041;-87
2021/06/28 09:58:28;;;;;;;12.88;11.57;;;28.90;99.90;;;;;;4163070;28;20041;-87
2021/06/28 10:00:29;;;;;;;14.07;12.77;;;28.40;99.90;;;;;;4169622;28;20029;-86
2021/06/28 10:02:37;;;;;;;14.93;13.45;;;27.60;99.90;;;;;;4167083;28;20029;-87
2021/06/28 10:04:59;;;;;;;13.88;12.57;;;27.20;99.90;;;;;;4165820;28;20509;-87
2021/06/28 10:07:25;;;;;;;14.77;13.27;;;27.10;99.90;;;;;;4152749;28;20049;-86
2021/06/28 10:09:26;;;;;;;9.60;8.70;;;27.20;99.90;;;;;;4172571;28;20037;-84
2021/06/28 10:11:28;;;;;;;10.10;8.80;;;27.10;99.90;;;;;;4165303;28;20041;-86
2021/06/28 10:13:29;;;;;;;8.77;7.93;;;26.90;99.90;;;;;;4166747;28;20034;-87
2021/06/28 10:15:35;;;;;;;11.43;9.55;;;26.70;99.90;;;;;;4166410;28;20484;-87
2021/06/28 10:17:38;;;;;;;10.70;9.77;;;26.70;99.90;;;;;;4156935;28;20117;-87
2021/06/28 10:19:43;;;;;;;10.75;9.43;;;26.70;99.90;;;;;;4165331;28;20049;-85
2021/06/28 10:21:53;;;;;;;12.00;10.77;;;26.60;99.90;;;;;;4164878;28;20038;-86
2021/06/28 10:23:55;;;;;;;12.48;10.57;;;26.70;99.90;;;;;;4164922;28;20036;-85
2021/06/28 10:25:57;;;;;;;12.57;11.32;;;26.70;99.90;;;;;;4166890;28;20044;-86
2021/06/28 10:27:59;;;;;;;12.90;11.45;;;26.60;99.90;;;;;;4165001;28;20496;-86
2021/06/28 10:30:00;;;;;;;12.80;11.68;;;26.50;99.90;;;;;;4165213;28;20406;-86
2021/06/28 10:32:09;;;;;;;13.32;12.02;;;26.40;99.90;;;;;;4166452;28;20057;-83